createdAt,value
2022-08-22T00:00:38.245Z,21.90
2022-08-22T00:02:59.281Z,19.25
2022-08-22T00:03:08.633Z,21.63
2022-08-22T00:04:14.063Z,21.50
2022-08-22T00:07:18.859Z,20.95
2022-08-22T00:10:25.461Z,22.13
2022-08-22T00:14:01.107Z,19.45
2022-08-22T00:17:27.920Z,21.77
2022-08-22T00:20:35.853Z,21.53
2022-08-22T00:23:58.148Z,23.10
2022-08-22T00:27:05.671Z,22.05
2022-08-22T00:30:13.858Z,21.48
2022-08-22T00:33:23.449Z,21.00
2022-08-22T00:36:25.480Z,22.03
2022-08-22T00:39:47.741Z,22.17
2022-08-22T00:43:08.505Z,20.08
2022-08-22T00:46:10.483Z,20.10
2022-08-22T00:49:15.232Z,20.27
2022-08-22T00:52:32.589Z,18.17
2022-08-22T00:55:39.394Z,18.77
2022-08-22T00:58:41.453Z,18.42
2022-08-22T01:02:10.728Z,19.50
2022-08-22T01:05:21.712Z,18.27
2022-08-22T01:08:29.581Z,19.47
2022-08-22T01:11:34.455Z,19.13
2022-08-22T01:14:36.458Z,18.10
2022-08-22T01:17:57.347Z,17.98
2022-08-22T01:21:20.756Z,17.23
2022-08-22T01:24:32.561Z,16.00
2022-08-22T01:27:52.828Z,16.98
2022-08-22T01:30:59.271Z,16.80
2022-08-22T01:34:03.988Z,16.67
2022-08-22T01:37:13.914Z,15.77
2022-08-22T01:40:34.799Z,16.53
2022-08-22T01:43:59.216Z,15.77
2022-08-22T01:47:07.178Z,15.98
2022-08-22T01:50:18.389Z,15.38
2022-08-22T01:53:38.937Z,16.07
2022-08-22T01:56:45.371Z,16.40
2022-08-22T01:59:49.685Z,16.33
2022-08-22T02:03:10.105Z,16.23
2022-08-22T02:06:17.303Z,16.05
2022-08-22T02:09:42.383Z,15.10
2022-08-22T02:12:47.826Z,15.30
2022-08-22T02:15:53.427Z,16.25
2022-08-22T02:19:13.874Z,15.77
2022-08-22T02:22:28.259Z,15.35
2022-08-22T02:25:34.567Z,15.33
2022-08-22T02:28:36.577Z,15.80
2022-08-22T02:31:53.842Z,15.63
2022-08-22T02:35:05.636Z,15.77
2022-08-22T02:38:25.010Z,15.73
2022-08-22T02:41:36.160Z,15.93
2022-08-22T02:44:57.194Z,14.73
2022-08-22T02:48:05.076Z,14.73
2022-08-22T02:51:30.096Z,14.60
2022-08-22T02:54:50.159Z,15.93
2022-08-22T02:57:56.940Z,15.57
2022-08-22T03:00:58.963Z,16.57
2022-08-22T03:04:20.210Z,16.35
2022-08-22T03:07:22.173Z,14.35
2022-08-22T03:10:27.770Z,14.90
2022-08-22T03:13:47.839Z,15.90
2022-08-22T03:16:55.240Z,16.37
2022-08-22T03:19:57.303Z,17.42
2022-08-22T03:23:17.772Z,16.60
2022-08-22T03:26:20.040Z,15.60
2022-08-22T03:29:27.386Z,16.43
2022-08-22T03:32:47.639Z,16.97
2022-08-22T03:35:50.019Z,16.20
2022-08-22T03:39:00.765Z,18.15
2022-08-22T03:42:12.218Z,17.92
2022-08-22T03:45:32.971Z,18.37
2022-08-22T03:48:53.524Z,21.27
2022-08-22T03:52:04.225Z,21.35
2022-08-22T03:55:41.583Z,19.95
2022-08-22T03:58:58.751Z,21.33
2022-08-22T04:02:01.518Z,22.07
2022-08-22T04:05:16.309Z,22.83
2022-08-22T04:08:27.237Z,23.45
2022-08-22T04:11:32.392Z,22.67
2022-08-22T04:14:44.191Z,22.55
2022-08-22T04:17:46.181Z,23.43
2022-08-22T04:20:58.649Z,22.00
2022-08-22T04:24:09.672Z,21.92
2022-08-22T04:27:20.517Z,22.08
2022-08-22T04:30:36.953Z,20.90
2022-08-22T04:33:52.799Z,21.77
2022-08-22T04:36:57.003Z,21.00
2022-08-22T04:40:05.495Z,22.00
2022-08-22T04:43:16.812Z,21.55
2022-08-22T04:46:23.658Z,21.33
2022-08-22T04:49:47.656Z,21.23
2022-08-22T04:53:08.182Z,23.13
2022-08-22T04:56:27.249Z,21.38
2022-08-22T04:59:30.421Z,21.08
2022-08-22T05:02:37.794Z,20.20
2022-08-22T05:05:40.393Z,22.00
2022-08-22T05:08:43.824Z,21.23
2022-08-22T05:11:48.957Z,20.10
2022-08-22T05:14:54.483Z,20.15
2022-08-22T05:17:59.792Z,19.50
2022-08-22T05:21:03.586Z,20.17
2022-08-22T05:24:10.856Z,18.47
2022-08-22T05:27:15.769Z,19.63
2022-08-22T05:30:24.068Z,19.58
2022-08-22T05:33:44.139Z,19.20
2022-08-22T05:36:48.866Z,19.30
2022-08-22T05:39:54.889Z,19.77
2022-08-22T05:42:57.598Z,19.40
2022-08-22T05:46:00.603Z,18.30
2022-08-22T05:49:04.090Z,18.38
2022-08-22T05:52:09.838Z,19.57
2022-08-22T05:55:11.806Z,18.23
2022-08-22T05:58:32.270Z,18.52
2022-08-22T06:01:38.002Z,16.50
2022-08-22T06:04:51.882Z,16.20
2022-08-22T06:08:01.291Z,17.50
2022-08-22T06:11:07.509Z,15.80
2022-08-22T06:14:28.080Z,16.05
2022-08-22T06:17:36.194Z,15.15
2022-08-22T06:20:45.875Z,13.77
2022-08-22T06:23:53.867Z,16.50
2022-08-22T06:26:59.585Z,16.10
2022-08-22T06:30:03.099Z,15.43
2022-08-22T06:33:12.641Z,14.75
2022-08-22T06:36:30.984Z,13.25
2022-08-22T06:39:34.195Z,13.07
2022-08-22T06:42:44.280Z,14.10
2022-08-22T06:45:47.075Z,13.77
2022-08-22T06:48:49.306Z,14.13
2022-08-22T06:51:52.055Z,13.10
2022-08-22T06:55:02.565Z,13.00
2022-08-22T06:58:13.121Z,14.47
2022-08-22T07:01:18.378Z,12.35
2022-08-22T07:04:25.960Z,12.23
2022-08-22T07:07:28.523Z,12.63
2022-08-22T07:10:30.622Z,11.23
2022-08-22T07:13:34.924Z,11.30
2022-08-22T07:16:40.116Z,11.93
2022-08-22T07:19:47.215Z,13.43
2022-08-22T07:22:57.939Z,12.48
2022-08-22T07:26:12.805Z,10.90
2022-08-22T07:29:14.812Z,12.23
2022-08-22T07:32:20.602Z,13.00
2022-08-22T07:35:44.097Z,13.65
2022-08-22T07:38:59.077Z,13.98
2022-08-22T07:42:16.028Z,14.37
2022-08-22T07:45:32.068Z,14.63
2022-08-22T07:48:59.300Z,13.38
2022-08-22T07:52:04.040Z,12.88
2022-08-22T07:55:08.164Z,13.65
2022-08-22T07:58:13.465Z,12.43
2022-08-22T08:01:19.374Z,12.40
2022-08-22T08:04:24.846Z,14.52
2022-08-22T08:07:28.265Z,15.13
2022-08-22T08:10:32.673Z,13.57
2022-08-22T08:13:35.941Z,12.13
2022-08-22T08:16:56.160Z,11.80
2022-08-22T08:20:00.004Z,12.07
2022-08-22T08:23:02.196Z,13.75
2022-08-22T08:26:09.641Z,12.88
2022-08-22T08:29:11.722Z,12.27
2022-08-22T08:32:13.951Z,11.60
2022-08-22T08:35:23.802Z,11.63
2022-08-22T08:38:31.320Z,12.27
2022-08-22T08:41:39.109Z,13.50
2022-08-22T08:44:43.888Z,13.77
2022-08-22T08:47:49.113Z,14.53
2022-08-22T08:51:01.987Z,14.77
2022-08-22T08:54:11.520Z,15.98
2022-08-22T08:57:25.564Z,13.68
2022-08-22T09:00:48.964Z,13.13
2022-08-22T09:04:03.168Z,13.03
2022-08-22T09:07:05.877Z,15.95
2022-08-22T09:10:11.783Z,15.18
2022-08-22T09:13:24.312Z,15.15
2022-08-22T09:16:36.112Z,16.33
2022-08-22T09:19:56.849Z,15.33
2022-08-22T09:23:10.865Z,15.07
2022-08-22T09:26:39.275Z,15.95
2022-08-22T09:29:55.192Z,14.55
2022-08-22T09:33:16.544Z,14.43
2022-08-22T09:36:26.196Z,15.17
2022-08-22T09:39:28.641Z,14.05
2022-08-22T09:42:33.624Z,12.85
2022-08-22T09:45:35.698Z,13.23
2022-08-22T09:48:37.942Z,13.93
2022-08-22T09:51:45.017Z,14.57
2022-08-22T09:54:50.044Z,14.32
2022-08-22T09:57:55.477Z,15.75
2022-08-22T10:01:20.766Z,14.93
2022-08-22T10:04:34.733Z,14.87
2022-08-22T10:07:40.036Z,15.67
2022-08-22T10:10:51.350Z,14.52
2022-08-22T10:14:02.583Z,15.15
2022-08-22T10:17:41.024Z,14.55
2022-08-22T10:21:15.776Z,14.60
2022-08-22T10:24:25.104Z,13.40
2022-08-22T10:27:28.974Z,13.38
2022-08-22T10:30:34.912Z,12.27
2022-08-22T10:33:42.354Z,10.63
2022-08-22T10:36:53.335Z,10.53
2022-08-22T10:39:58.234Z,9.47
2022-08-22T10:43:09.641Z,10.48
2022-08-22T10:46:16.220Z,10.38
2022-08-22T10:49:28.376Z,11.25
2022-08-22T10:52:34.088Z,9.80
2022-08-22T10:55:39.415Z,9.67
2022-08-22T10:58:56.220Z,10.55
2022-08-22T11:02:07.215Z,13.32
2022-08-22T11:05:19.383Z,10.48
2022-08-22T11:08:29.076Z,10.77
2022-08-22T11:11:38.704Z,10.37
2022-08-22T11:14:40.750Z,10.07
2022-08-22T11:18:13.081Z,10.57
2022-08-22T11:21:24.436Z,10.52
2022-08-22T11:24:53.975Z,9.90
2022-08-22T11:27:59.053Z,9.77
2022-08-22T11:31:21.493Z,10.13
2022-08-22T11:34:42.037Z,9.93
2022-08-22T11:38:05.153Z,8.45
2022-08-22T11:41:52.222Z,8.53
2022-08-22T11:44:56.608Z,8.77
2022-08-22T11:48:02.694Z,8.18
2022-08-22T11:51:13.227Z,8.70
2022-08-22T11:54:28.734Z,8.43
2022-08-22T11:57:38.177Z,7.73
2022-08-22T12:00:48.615Z,7.87
2022-08-22T12:04:09.766Z,9.95
2022-08-22T12:07:14.878Z,10.85
2022-08-22T12:10:19.304Z,12.18
2022-08-22T12:13:34.101Z,11.40
2022-08-22T12:16:49.423Z,11.87
2022-08-22T12:20:15.028Z,12.23
2022-08-22T12:23:43.318Z,13.25
2022-08-22T12:26:47.195Z,16.88
2022-08-22T12:29:52.039Z,15.93
2022-08-22T12:33:06.461Z,16.83
2022-08-22T12:36:30.980Z,19.00
2022-08-22T12:39:41.996Z,16.40
2022-08-22T12:42:49.008Z,15.82
2022-08-22T12:45:58.219Z,15.63
2022-08-22T12:49:19.107Z,13.90
2022-08-22T12:52:21.115Z,13.13
2022-08-22T12:55:30.179Z,15.02
2022-08-22T12:58:51.361Z,15.73
2022-08-22T13:01:56.578Z,16.03
2022-08-22T13:05:08.460Z,15.13
2022-08-22T13:08:13.576Z,16.45
2022-08-22T13:11:23.011Z,17.05
2022-08-22T13:14:26.476Z,16.58
2022-08-22T13:17:29.208Z,17.90
2022-08-22T13:20:33.212Z,17.37
2022-08-22T13:23:39.868Z,18.55
2022-08-22T13:27:05.758Z,16.45
2022-08-22T13:30:12.412Z,18.42
2022-08-22T13:33:22.379Z,19.17
2022-08-22T13:36:24.825Z,16.80
2022-08-22T13:39:33.020Z,18.90
2022-08-22T13:42:40.156Z,22.50
2022-08-22T13:45:48.620Z,20.75
2022-08-22T13:48:56.643Z,22.77
2022-08-22T13:52:02.927Z,20.13
2022-08-22T13:55:09.208Z,20.20
2022-08-22T13:58:27.237Z,19.08
2022-08-22T14:01:32.180Z,20.27
2022-08-22T14:04:37.279Z,19.43
2022-08-22T14:07:54.273Z,21.20
2022-08-22T14:11:01.923Z,19.08
2022-08-22T14:14:08.202Z,21.42
2022-08-22T14:17:15.227Z,20.55
2022-08-22T14:20:32.156Z,23.03
2022-08-22T14:23:35.849Z,18.53
2022-08-22T14:26:47.476Z,19.83
2022-08-22T14:30:01.463Z,17.88
2022-08-22T14:33:22.231Z,18.85
2022-08-22T14:36:43.221Z,19.67
2022-08-22T14:39:50.179Z,19.63
2022-08-22T14:42:58.510Z,20.02
2022-08-22T14:46:03.499Z,19.60
2022-08-22T14:49:08.531Z,19.45
2022-08-22T14:52:26.170Z,18.43
2022-08-22T14:55:31.714Z,18.20
2022-08-22T14:58:45.487Z,17.77
2022-08-22T15:01:55.266Z,17.80
2022-08-22T15:05:01.555Z,17.50
2022-08-22T15:08:05.328Z,17.27
2022-08-22T15:11:10.214Z,16.57
2022-08-22T15:14:42.576Z,17.92
2022-08-22T15:17:50.818Z,18.33
2022-08-22T15:21:11.309Z,16.30
2022-08-22T15:24:14.751Z,17.03
2022-08-22T15:27:18.883Z,14.00
2022-08-22T15:30:36.206Z,15.15
2022-08-22T15:33:40.210Z,14.40
2022-08-22T15:37:07.834Z,16.08
2022-08-22T15:40:12.942Z,15.37
2022-08-22T15:43:24.286Z,15.70
2022-08-22T15:46:34.186Z,15.73
2022-08-22T15:49:38.843Z,15.45
2022-08-22T15:53:04.866Z,14.57
2022-08-22T15:56:19.228Z,17.80
2022-08-22T15:59:26.085Z,16.73
2022-08-22T16:02:28.679Z,16.85
2022-08-22T16:05:45.839Z,16.77
2022-08-22T16:08:52.164Z,14.15
2022-08-22T16:11:55.146Z,14.50
2022-08-22T16:14:58.759Z,13.87
2022-08-22T16:18:00.815Z,13.65
2022-08-22T16:21:04.424Z,14.13
2022-08-22T16:24:06.450Z,13.35
2022-08-22T16:27:19.115Z,14.60
2022-08-22T16:30:31.249Z,14.40
2022-08-22T16:33:39.269Z,14.50
2022-08-22T16:36:43.695Z,14.50
2022-08-22T16:39:45.901Z,15.40
2022-08-22T16:42:53.119Z,15.57
2022-08-22T16:45:55.458Z,15.77
2022-08-22T16:49:01.512Z,15.25
2022-08-22T16:52:24.800Z,15.45
2022-08-22T16:55:29.786Z,16.73
2022-08-22T16:58:57.819Z,16.43
2022-08-22T17:02:09.641Z,16.70
2022-08-22T17:05:14.538Z,16.52
2022-08-22T17:08:25.323Z,16.08
2022-08-22T17:11:27.307Z,18.13
2022-08-22T17:14:41.280Z,16.70
2022-08-22T17:17:45.764Z,17.03
2022-08-22T17:20:59.650Z,17.30
2022-08-22T17:24:04.590Z,16.10
2022-08-22T17:27:13.278Z,17.05
2022-08-22T17:30:20.476Z,16.23
2022-08-22T17:33:27.977Z,17.27
2022-08-22T17:36:39.498Z,16.38
2022-08-22T17:39:47.483Z,16.35
2022-08-22T17:43:03.542Z,16.42
2022-08-22T17:46:13.416Z,15.87
2022-08-22T17:49:29.917Z,15.93
2022-08-22T17:52:44.204Z,17.50
2022-08-22T17:56:15.500Z,17.33
2022-08-22T17:59:24.107Z,17.05
2022-08-22T18:02:33.200Z,18.53
2022-08-22T18:05:50.568Z,16.70
2022-08-22T18:09:15.242Z,16.30
2022-08-22T18:12:22.047Z,17.00
2022-08-22T18:15:33.787Z,17.88
2022-08-22T18:18:40.512Z,18.33
2022-08-22T18:21:48.302Z,19.00
2022-08-22T18:25:09.024Z,18.08
2022-08-22T18:28:33.647Z,19.50
2022-08-22T18:31:53.410Z,18.80
2022-08-22T18:35:02.717Z,21.00
2022-08-22T18:38:20.234Z,19.17
2022-08-22T18:41:43.019Z,17.92
2022-08-22T18:44:45.482Z,18.13
2022-08-22T18:47:55.872Z,18.50
2022-08-22T18:51:16.553Z,18.97
2022-08-22T18:54:38.711Z,18.87
2022-08-22T18:57:57.701Z,17.70
2022-08-22T19:01:02.925Z,17.23
2022-08-22T19:04:08.473Z,18.52
2022-08-22T19:07:10.536Z,17.07
2022-08-22T19:10:12.560Z,18.43
2022-08-22T19:13:26.578Z,18.35
2022-08-22T19:16:31.629Z,18.23
2022-08-22T19:19:57.523Z,17.65
2022-08-22T19:23:18.071Z,18.07
2022-08-22T19:26:26.095Z,21.17
2022-08-22T19:29:28.147Z,20.40
2022-08-22T19:32:45.415Z,20.30
2022-08-22T19:36:04.620Z,17.77
2022-08-22T19:39:10.943Z,19.30
2022-08-22T19:42:20.671Z,17.17
2022-08-22T19:45:27.222Z,19.27
2022-08-22T19:48:31.997Z,20.20
2022-08-22T19:51:34.200Z,19.02
2022-08-22T19:54:42.701Z,18.17
2022-08-22T19:58:03.978Z,19.17
2022-08-22T20:01:28.644Z,19.48
2022-08-22T20:04:39.446Z,18.98
2022-08-22T20:08:00.154Z,20.05
2022-08-22T20:11:02.152Z,17.93
2022-08-22T20:14:11.560Z,19.20
2022-08-22T20:17:13.707Z,20.30
2022-08-22T20:20:30.478Z,19.88
2022-08-22T20:23:37.668Z,18.70
2022-08-22T20:26:57.294Z,20.40
2022-08-22T20:30:05.095Z,20.13
2022-08-22T20:33:13.958Z,19.38
2022-08-22T20:36:28.914Z,19.25
2022-08-22T20:39:40.327Z,19.73
2022-08-22T20:42:44.508Z,19.70
2022-08-22T20:45:59.238Z,21.87
2022-08-22T20:49:02.173Z,21.63
2022-08-22T20:52:04.400Z,21.67
2022-08-22T20:55:14.767Z,22.25
2022-08-22T20:58:22.360Z,22.70
2022-08-22T21:01:24.783Z,21.87
2022-08-22T21:04:28.529Z,22.55
2022-08-22T21:07:32.330Z,24.02
2022-08-22T21:10:54.304Z,23.23
2022-08-22T21:13:56.419Z,20.97
2022-08-22T21:16:58.558Z,22.40
2022-08-22T21:20:17.563Z,24.52
2022-08-22T21:23:19.932Z,24.17
2022-08-22T21:26:44.685Z,24.42
2022-08-22T21:29:46.826Z,25.23
2022-08-22T21:32:55.068Z,25.20
2022-08-22T21:35:59.088Z,24.77
2022-08-22T21:39:04.236Z,23.52
2022-08-22T21:42:06.226Z,23.60
2022-08-22T21:45:11.084Z,24.50
2022-08-22T21:48:33.222Z,22.77
2022-08-22T21:51:38.791Z,25.25
2022-08-22T21:54:40.939Z,23.95
2022-08-22T22:02:27.915Z,23.53
2022-08-22T22:05:29.939Z,21.53
2022-08-22T22:08:37.779Z,21.08
2022-08-22T22:11:40.561Z,20.40
2022-08-22T22:14:44.443Z,22.88
2022-08-22T22:17:46.534Z,20.40
2022-08-22T22:20:49.961Z,21.23
2022-08-22T22:23:52.550Z,22.33
2022-08-22T22:26:55.139Z,20.45
2022-08-22T22:29:57.679Z,19.50
2022-08-22T22:33:00.006Z,20.07
2022-08-22T22:36:09.902Z,19.63
2022-08-22T22:39:12.013Z,20.52
2022-08-22T22:42:14.073Z,19.25
2022-08-22T22:45:16.172Z,20.67
2022-08-22T22:48:24.089Z,19.57
2022-08-22T22:51:26.682Z,19.33
2022-08-22T22:54:28.720Z,19.70
2022-08-22T22:57:31.790Z,18.95
2022-08-22T23:00:43.627Z,18.52
2022-08-22T23:03:46.171Z,19.77
2022-08-22T23:06:48.224Z,18.83
2022-08-22T23:09:52.328Z,18.85
2022-08-22T23:12:55.798Z,20.23
2022-08-22T23:15:57.822Z,18.80
2022-08-22T23:18:59.786Z,19.67
2022-08-22T23:22:01.825Z,21.00
2022-08-22T23:25:05.214Z,21.00
2022-08-22T23:28:07.197Z,21.23
2022-08-22T23:31:15.974Z,23.15
2022-08-22T23:34:19.272Z,21.00
2022-08-22T23:37:21.881Z,23.23
2022-08-22T23:40:23.925Z,24.42
2022-08-22T23:43:25.979Z,22.33
2022-08-22T23:46:28.173Z,23.90
2022-08-22T23:49:33.823Z,23.17
2022-08-22T23:52:35.811Z,23.70
2022-08-22T23:55:37.889Z,23.58
2022-08-22T23:58:40.256Z,24.73
